sensor_id;sensor_type;location;lat;lon;timestamp;P1;durP1;ratioP1;P2;durP2;ratioP2
10805;SDS011;5455;53.224;6.000;2022-10-16T00:01:41;1.73;;;0.80;;
10805;SDS011;5455;53.224;6.000;2022-10-16T00:04:09;3.90;;;0.70;;
10805;SDS011;5455;53.224;6.000;2022-10-16T00:06:37;3.60;;;0.60;;
10805;SDS011;5455;53.224;6.000;2022-10-16T00:09:05;3.27;;;0.50;;
10805;SDS011;5455;53.224;6.000;2022-10-16T00:11:34;3.33;;;0.57;;
10805;SDS011;5455;53.224;6.000;2022-10-16T00:14:07;2.03;;;0.77;;
10805;SDS011;5455;53.224;6.000;2022-10-16T00:16:36;3.97;;;0.70;;
10805;SDS011;5455;53.224;6.000;2022-10-16T00:19:04;2.50;;;0.77;;
10805;SDS011;5455;53.224;6.000;2022-10-16T00:21:32;2.30;;;0.40;;
10805;SDS011;5455;53.224;6.000;2022-10-16T00:24:05;2.63;;;0.60;;
10805;SDS011;5455;53.224;6.000;2022-10-16T00:26:35;1.93;;;0.83;;
10805;SDS011;5455;53.224;6.000;2022-10-16T00:29:04;2.63;;;0.70;;
10805;SDS011;5455;53.224;6.000;2022-10-16T00:31:32;1.03;;;0.40;;
10805;SDS011;5455;53.224;6.000;2022-10-16T00:34:00;1.73;;;0.70;;
10805;SDS011;5455;53.224;6.000;2022-10-16T00:36:28;4.73;;;0.83;;
10805;SDS011;5455;53.224;6.000;2022-10-16T00:38:56;1.80;;;0.60;;
10805;SDS011;5455;53.224;6.000;2022-10-16T00:41:32;2.77;;;0.90;;
10805;SDS011;5455;53.224;6.000;2022-10-16T00:44:03;2.07;;;0.63;;
10805;SDS011;5455;53.224;6.000;2022-10-16T00:46:51;2.80;;;0.87;;
10805;SDS011;5455;53.224;6.000;2022-10-16T00:49:19;4.13;;;0.70;;
10805;SDS011;5455;53.224;6.000;2022-10-16T00:51:49;3.07;;;0.53;;
10805;SDS011;5455;53.224;6.000;2022-10-16T00:54:21;0.93;;;0.40;;
10805;SDS011;5455;53.224;6.000;2022-10-16T00:56:53;3.07;;;0.70;;
10805;SDS011;5455;53.224;6.000;2022-10-16T00:59:24;1.23;;;0.57;;
10805;SDS011;5455;53.224;6.000;2022-10-16T01:01:56;4.27;;;0.63;;
10805;SDS011;5455;53.224;6.000;2022-10-16T01:04:25;3.20;;;0.50;;
10805;SDS011;5455;53.224;6.000;2022-10-16T01:06:56;2.10;;;0.50;;
10805;SDS011;5455;53.224;6.000;2022-10-16T01:09:47;2.97;;;0.67;;
10805;SDS011;5455;53.224;6.000;2022-10-16T01:12:39;2.73;;;0.60;;
10805;SDS011;5455;53.224;6.000;2022-10-16T01:18:16;4.43;;;0.70;;
10805;SDS011;5455;53.224;6.000;2022-10-16T01:20:54;2.93;;;0.50;;
10805;SDS011;5455;53.224;6.000;2022-10-16T01:23:41;2.17;;;0.50;;
10805;SDS011;5455;53.224;6.000;2022-10-16T01:26:14;3.13;;;0.50;;
10805;SDS011;5455;53.224;6.000;2022-10-16T01:31:24;3.07;;;0.60;;
10805;SDS011;5455;53.224;6.000;2022-10-16T01:34:12;1.63;;;0.60;;
10805;SDS011;5455;53.224;6.000;2022-10-16T01:37:04;2.17;;;0.47;;
10805;SDS011;5455;53.224;6.000;2022-10-16T01:39:45;3.17;;;0.70;;
10805;SDS011;5455;53.224;6.000;2022-10-16T01:42:16;1.30;;;0.50;;
10805;SDS011;5455;53.224;6.000;2022-10-16T01:44:48;1.07;;;0.40;;
10805;SDS011;5455;53.224;6.000;2022-10-16T01:47:18;2.20;;;0.53;;
10805;SDS011;5455;53.224;6.000;2022-10-16T01:49:50;0.77;;;0.50;;
10805;SDS011;5455;53.224;6.000;2022-10-16T01:52:21;2.10;;;0.80;;
10805;SDS011;5455;53.224;6.000;2022-10-16T01:54:54;5.63;;;0.50;;
10805;SDS011;5455;53.224;6.000;2022-10-16T01:57:23;3.03;;;0.60;;
10805;SDS011;5455;53.224;6.000;2022-10-16T01:59:54;3.30;;;0.70;;
10805;SDS011;5455;53.224;6.000;2022-10-16T02:02:26;2.53;;;0.50;;
10805;SDS011;5455;53.224;6.000;2022-10-16T02:04:58;2.13;;;0.70;;
10805;SDS011;5455;53.224;6.000;2022-10-16T02:07:32;0.67;;;0.40;;
10805;SDS011;5455;53.224;6.000;2022-10-16T02:10:00;2.80;;;0.60;;
10805;SDS011;5455;53.224;6.000;2022-10-16T02:12:30;2.03;;;0.70;;
10805;SDS011;5455;53.224;6.000;2022-10-16T02:15:00;3.07;;;0.70;;
10805;SDS011;5455;53.224;6.000;2022-10-16T02:17:28;1.53;;;0.53;;
10805;SDS011;5455;53.224;6.000;2022-10-16T02:19:56;1.97;;;0.60;;
10805;SDS011;5455;53.224;6.000;2022-10-16T02:25:06;1.33;;;0.80;;
10805;SDS011;5455;53.224;6.000;2022-10-16T02:27:41;2.50;;;0.70;;
10805;SDS011;5455;53.224;6.000;2022-10-16T02:30:28;1.77;;;0.77;;
10805;SDS011;5455;53.224;6.000;2022-10-16T02:33:01;2.93;;;0.80;;
10805;SDS011;5455;53.224;6.000;2022-10-16T02:35:33;2.70;;;0.77;;
10805;SDS011;5455;53.224;6.000;2022-10-16T02:38:02;1.57;;;0.60;;
10805;SDS011;5455;53.224;6.000;2022-10-16T02:40:31;2.73;;;0.93;;
10805;SDS011;5455;53.224;6.000;2022-10-16T02:43:02;5.13;;;0.90;;
10805;SDS011;5455;53.224;6.000;2022-10-16T02:45:32;2.63;;;1.10;;
10805;SDS011;5455;53.224;6.000;2022-10-16T02:48:02;2.03;;;0.77;;
10805;SDS011;5455;53.224;6.000;2022-10-16T02:50:30;3.27;;;0.90;;
10805;SDS011;5455;53.224;6.000;2022-10-16T02:53:01;1.63;;;0.97;;
10805;SDS011;5455;53.224;6.000;2022-10-16T02:55:29;3.30;;;0.87;;
10805;SDS011;5455;53.224;6.000;2022-10-16T02:57:56;1.00;;;0.73;;
10805;SDS011;5455;53.224;6.000;2022-10-16T03:00:24;5.73;;;1.00;;
10805;SDS011;5455;53.224;6.000;2022-10-16T03:02:52;3.90;;;0.80;;
10805;SDS011;5455;53.224;6.000;2022-10-16T03:05:19;2.97;;;0.97;;
10805;SDS011;5455;53.224;6.000;2022-10-16T03:07:48;1.47;;;0.73;;
10805;SDS011;5455;53.224;6.000;2022-10-16T03:10:15;1.97;;;0.83;;
10805;SDS011;5455;53.224;6.000;2022-10-16T03:12:42;1.00;;;0.60;;
10805;SDS011;5455;53.224;6.000;2022-10-16T03:15:10;2.33;;;0.80;;
10805;SDS011;5455;53.224;6.000;2022-10-16T03:17:37;4.20;;;0.90;;
10805;SDS011;5455;53.224;6.000;2022-10-16T03:20:05;0.90;;;0.63;;
10805;SDS011;5455;53.224;6.000;2022-10-16T03:22:33;1.93;;;0.80;;
10805;SDS011;5455;53.224;6.000;2022-10-16T03:25:01;1.23;;;0.70;;
10805;SDS011;5455;53.224;6.000;2022-10-16T03:27:29;2.13;;;0.53;;
10805;SDS011;5455;53.224;6.000;2022-10-16T03:29:56;1.60;;;0.50;;
10805;SDS011;5455;53.224;6.000;2022-10-16T03:32:24;1.30;;;0.67;;
10805;SDS011;5455;53.224;6.000;2022-10-16T03:34:52;1.70;;;0.57;;
10805;SDS011;5455;53.224;6.000;2022-10-16T03:37:21;1.70;;;0.50;;
10805;SDS011;5455;53.224;6.000;2022-10-16T03:39:48;2.30;;;0.53;;
10805;SDS011;5455;53.224;6.000;2022-10-16T03:42:16;1.20;;;0.60;;
10805;SDS011;5455;53.224;6.000;2022-10-16T03:44:44;2.80;;;0.87;;
10805;SDS011;5455;53.224;6.000;2022-10-16T03:47:12;2.10;;;0.70;;
10805;SDS011;5455;53.224;6.000;2022-10-16T03:49:39;4.80;;;0.60;;
10805;SDS011;5455;53.224;6.000;2022-10-16T03:52:07;2.07;;;0.70;;
10805;SDS011;5455;53.224;6.000;2022-10-16T03:54:34;0.83;;;0.43;;
10805;SDS011;5455;53.224;6.000;2022-10-16T03:57:02;2.83;;;0.77;;
10805;SDS011;5455;53.224;6.000;2022-10-16T03:59:29;5.57;;;0.80;;
10805;SDS011;5455;53.224;6.000;2022-10-16T04:01:57;2.80;;;0.70;;
10805;SDS011;5455;53.224;6.000;2022-10-16T04:04:24;2.37;;;0.60;;
10805;SDS011;5455;53.224;6.000;2022-10-16T04:06:52;2.17;;;0.40;;
10805;SDS011;5455;53.224;6.000;2022-10-16T04:09:20;2.50;;;0.50;;
10805;SDS011;5455;53.224;6.000;2022-10-16T04:11:48;1.87;;;0.60;;
10805;SDS011;5455;53.224;6.000;2022-10-16T04:14:15;1.90;;;0.43;;
10805;SDS011;5455;53.224;6.000;2022-10-16T04:16:43;3.63;;;0.70;;
10805;SDS011;5455;53.224;6.000;2022-10-16T04:19:11;2.50;;;0.60;;
10805;SDS011;5455;53.224;6.000;2022-10-16T04:21:38;2.33;;;0.50;;
10805;SDS011;5455;53.224;6.000;2022-10-16T04:24:06;0.67;;;0.47;;
10805;SDS011;5455;53.224;6.000;2022-10-16T04:26:33;2.07;;;0.43;;
10805;SDS011;5455;53.224;6.000;2022-10-16T04:29:01;1.10;;;0.40;;
10805;SDS011;5455;53.224;6.000;2022-10-16T04:31:29;1.40;;;0.57;;
10805;SDS011;5455;53.224;6.000;2022-10-16T04:33:56;2.13;;;0.50;;
10805;SDS011;5455;53.224;6.000;2022-10-16T04:36:24;1.30;;;0.70;;
10805;SDS011;5455;53.224;6.000;2022-10-16T04:38:55;1.57;;;0.43;;
10805;SDS011;5455;53.224;6.000;2022-10-16T04:41:22;1.40;;;0.50;;
10805;SDS011;5455;53.224;6.000;2022-10-16T04:43:50;2.70;;;0.70;;
10805;SDS011;5455;53.224;6.000;2022-10-16T04:46:18;1.90;;;0.70;;
10805;SDS011;5455;53.224;6.000;2022-10-16T04:48:45;1.87;;;0.50;;
10805;SDS011;5455;53.224;6.000;2022-10-16T04:51:13;1.60;;;0.70;;
10805;SDS011;5455;53.224;6.000;2022-10-16T04:53:41;1.70;;;0.50;;
10805;SDS011;5455;53.224;6.000;2022-10-16T04:56:08;1.57;;;0.57;;
10805;SDS011;5455;53.224;6.000;2022-10-16T04:58:36;1.23;;;0.50;;
10805;SDS011;5455;53.224;6.000;2022-10-16T05:01:03;0.30;;;0.30;;
10805;SDS011;5455;53.224;6.000;2022-10-16T05:03:31;1.70;;;0.53;;
10805;SDS011;5455;53.224;6.000;2022-10-16T05:05:58;1.40;;;0.60;;
10805;SDS011;5455;53.224;6.000;2022-10-16T05:08:26;1.60;;;0.60;;
10805;SDS011;5455;53.224;6.000;2022-10-16T05:10:54;0.70;;;0.43;;
10805;SDS011;5455;53.224;6.000;2022-10-16T05:13:21;1.93;;;0.60;;
10805;SDS011;5455;53.224;6.000;2022-10-16T05:15:50;4.63;;;0.63;;
10805;SDS011;5455;53.224;6.000;2022-10-16T05:18:17;1.77;;;0.70;;
10805;SDS011;5455;53.224;6.000;2022-10-16T05:20:45;1.93;;;0.80;;
10805;SDS011;5455;53.224;6.000;2022-10-16T05:23:12;1.30;;;0.83;;
10805;SDS011;5455;53.224;6.000;2022-10-16T05:25:52;4.13;;;1.00;;
10805;SDS011;5455;53.224;6.000;2022-10-16T05:28:26;1.43;;;0.67;;
10805;SDS011;5455;53.224;6.000;2022-10-16T05:30:54;2.20;;;0.80;;
10805;SDS011;5455;53.224;6.000;2022-10-16T05:33:23;3.20;;;0.87;;
10805;SDS011;5455;53.224;6.000;2022-10-16T05:35:52;3.43;;;1.00;;
10805;SDS011;5455;53.224;6.000;2022-10-16T05:38:20;1.07;;;0.77;;
10805;SDS011;5455;53.224;6.000;2022-10-16T05:40:51;3.63;;;1.07;;
10805;SDS011;5455;53.224;6.000;2022-10-16T05:43:22;6.17;;;1.37;;
10805;SDS011;5455;53.224;6.000;2022-10-16T05:46:08;3.17;;;1.10;;
10805;SDS011;5455;53.224;6.000;2022-10-16T05:48:35;1.73;;;0.77;;
10805;SDS011;5455;53.224;6.000;2022-10-16T05:51:03;3.47;;;1.07;;
10805;SDS011;5455;53.224;6.000;2022-10-16T05:53:36;3.40;;;1.10;;
10805;SDS011;5455;53.224;6.000;2022-10-16T05:56:05;3.40;;;0.90;;
10805;SDS011;5455;53.224;6.000;2022-10-16T05:58:35;1.63;;;0.83;;
10805;SDS011;5455;53.224;6.000;2022-10-16T06:01:09;3.80;;;1.10;;
10805;SDS011;5455;53.224;6.000;2022-10-16T06:03:39;2.90;;;1.00;;
10805;SDS011;5455;53.224;6.000;2022-10-16T06:06:13;1.90;;;0.97;;
10805;SDS011;5455;53.224;6.000;2022-10-16T06:08:43;2.80;;;1.17;;
10805;SDS011;5455;53.224;6.000;2022-10-16T06:11:19;3.77;;;0.87;;
10805;SDS011;5455;53.224;6.000;2022-10-16T06:13:49;1.53;;;0.80;;
10805;SDS011;5455;53.224;6.000;2022-10-16T06:16:21;1.43;;;0.83;;
10805;SDS011;5455;53.224;6.000;2022-10-16T06:18:50;1.93;;;1.10;;
10805;SDS011;5455;53.224;6.000;2022-10-16T06:21:22;2.63;;;1.17;;
10805;SDS011;5455;53.224;6.000;2022-10-16T06:23:52;2.03;;;0.90;;
10805;SDS011;5455;53.224;6.000;2022-10-16T06:26:21;2.73;;;0.97;;
10805;SDS011;5455;53.224;6.000;2022-10-16T06:28:51;2.83;;;1.20;;
10805;SDS011;5455;53.224;6.000;2022-10-16T06:31:20;1.93;;;0.90;;
10805;SDS011;5455;53.224;6.000;2022-10-16T06:33:51;1.43;;;0.70;;
10805;SDS011;5455;53.224;6.000;2022-10-16T06:36:19;2.40;;;1.00;;
10805;SDS011;5455;53.224;6.000;2022-10-16T06:38:47;4.17;;;1.10;;
10805;SDS011;5455;53.224;6.000;2022-10-16T06:41:16;3.03;;;0.77;;
10805;SDS011;5455;53.224;6.000;2022-10-16T06:43:45;2.87;;;1.03;;
10805;SDS011;5455;53.224;6.000;2022-10-16T06:46:14;4.13;;;0.90;;
10805;SDS011;5455;53.224;6.000;2022-10-16T06:48:44;2.10;;;1.10;;
10805;SDS011;5455;53.224;6.000;2022-10-16T06:51:12;1.87;;;0.63;;
10805;SDS011;5455;53.224;6.000;2022-10-16T06:53:45;6.30;;;0.80;;
10805;SDS011;5455;53.224;6.000;2022-10-16T06:56:30;2.40;;;0.80;;
10805;SDS011;5455;53.224;6.000;2022-10-16T06:58:58;3.23;;;0.60;;
10805;SDS011;5455;53.224;6.000;2022-10-16T07:01:27;6.30;;;0.80;;
10805;SDS011;5455;53.224;6.000;2022-10-16T07:03:55;4.07;;;0.80;;
10805;SDS011;5455;53.224;6.000;2022-10-16T07:06:23;4.07;;;0.80;;
10805;SDS011;5455;53.224;6.000;2022-10-16T07:08:53;6.63;;;1.20;;
10805;SDS011;5455;53.224;6.000;2022-10-16T07:11:21;1.63;;;0.80;;
10805;SDS011;5455;53.224;6.000;2022-10-16T07:13:51;3.77;;;0.50;;
10805;SDS011;5455;53.224;6.000;2022-10-16T07:16:23;4.43;;;0.60;;
10805;SDS011;5455;53.224;6.000;2022-10-16T07:18:55;2.80;;;0.80;;
10805;SDS011;5455;53.224;6.000;2022-10-16T07:21:27;2.67;;;0.70;;
10805;SDS011;5455;53.224;6.000;2022-10-16T07:24:04;2.30;;;0.57;;
10805;SDS011;5455;53.224;6.000;2022-10-16T07:26:34;2.70;;;0.73;;
10805;SDS011;5455;53.224;6.000;2022-10-16T07:29:03;2.47;;;0.70;;
10805;SDS011;5455;53.224;6.000;2022-10-16T07:31:31;2.37;;;0.73;;
10805;SDS011;5455;53.224;6.000;2022-10-16T07:33:59;5.47;;;0.80;;
10805;SDS011;5455;53.224;6.000;2022-10-16T07:36:27;2.87;;;0.83;;
10805;SDS011;5455;53.224;6.000;2022-10-16T07:38:55;2.37;;;0.60;;
10805;SDS011;5455;53.224;6.000;2022-10-16T07:41:26;4.23;;;0.90;;
10805;SDS011;5455;53.224;6.000;2022-10-16T07:43:55;3.77;;;0.90;;
10805;SDS011;5455;53.224;6.000;2022-10-16T07:46:27;1.63;;;0.83;;
10805;SDS011;5455;53.224;6.000;2022-10-16T07:48:55;4.63;;;0.70;;
10805;SDS011;5455;53.224;6.000;2022-10-16T07:51:23;2.53;;;0.80;;
10805;SDS011;5455;53.224;6.000;2022-10-16T07:53:52;2.13;;;0.90;;
10805;SDS011;5455;53.224;6.000;2022-10-16T07:56:20;2.00;;;0.97;;
10805;SDS011;5455;53.224;6.000;2022-10-16T07:58:49;5.67;;;1.00;;
10805;SDS011;5455;53.224;6.000;2022-10-16T08:01:17;3.30;;;1.10;;
10805;SDS011;5455;53.224;6.000;2022-10-16T08:03:47;3.40;;;1.10;;
10805;SDS011;5455;53.224;6.000;2022-10-16T08:06:17;5.50;;;1.27;;
10805;SDS011;5455;53.224;6.000;2022-10-16T08:08:52;4.80;;;0.80;;
10805;SDS011;5455;53.224;6.000;2022-10-16T08:11:20;3.37;;;0.83;;
10805;SDS011;5455;53.224;6.000;2022-10-16T08:13:48;3.23;;;0.70;;
10805;SDS011;5455;53.224;6.000;2022-10-16T08:16:15;4.20;;;0.87;;
10805;SDS011;5455;53.224;6.000;2022-10-16T08:18:44;4.87;;;0.93;;
10805;SDS011;5455;53.224;6.000;2022-10-16T08:21:16;2.63;;;0.83;;
10805;SDS011;5455;53.224;6.000;2022-10-16T08:23:48;3.43;;;0.70;;
10805;SDS011;5455;53.224;6.000;2022-10-16T08:26:24;2.53;;;0.80;;
10805;SDS011;5455;53.224;6.000;2022-10-16T08:28:52;1.90;;;0.80;;
10805;SDS011;5455;53.224;6.000;2022-10-16T08:31:21;1.27;;;0.60;;
10805;SDS011;5455;53.224;6.000;2022-10-16T08:33:49;1.50;;;0.57;;
10805;SDS011;5455;53.224;6.000;2022-10-16T08:36:16;3.87;;;0.80;;
10805;SDS011;5455;53.224;6.000;2022-10-16T08:38:46;4.47;;;0.90;;
10805;SDS011;5455;53.224;6.000;2022-10-16T08:44:09;4.10;;;0.73;;
10805;SDS011;5455;53.224;6.000;2022-10-16T08:49:39;4.20;;;0.93;;
10805;SDS011;5455;53.224;6.000;2022-10-16T08:52:14;4.07;;;0.97;;
10805;SDS011;5455;53.224;6.000;2022-10-16T08:54:42;7.67;;;2.17;;
10805;SDS011;5455;53.224;6.000;2022-10-16T08:59:50;3.80;;;1.00;;
10805;SDS011;5455;53.224;6.000;2022-10-16T09:02:28;3.50;;;0.97;;
10805;SDS011;5455;53.224;6.000;2022-10-16T09:05:43;6.80;;;1.13;;
10805;SDS011;5455;53.224;6.000;2022-10-16T09:11:37;3.33;;;0.90;;
10805;SDS011;5455;53.224;6.000;2022-10-16T09:16:57;5.50;;;0.93;;
10805;SDS011;5455;53.224;6.000;2022-10-16T09:19:31;4.90;;;0.93;;
10805;SDS011;5455;53.224;6.000;2022-10-16T09:22:10;9.40;;;1.03;;
10805;SDS011;5455;53.224;6.000;2022-10-16T09:24:41;3.20;;;0.77;;
10805;SDS011;5455;53.224;6.000;2022-10-16T09:27:12;2.27;;;0.87;;
10805;SDS011;5455;53.224;6.000;2022-10-16T09:29:41;6.97;;;1.20;;
10805;SDS011;5455;53.224;6.000;2022-10-16T09:32:14;8.97;;;1.57;;
10805;SDS011;5455;53.224;6.000;2022-10-16T09:34:52;1.47;;;0.43;;
10805;SDS011;5455;53.224;6.000;2022-10-16T09:37:23;7.00;;;1.83;;
10805;SDS011;5455;53.224;6.000;2022-10-16T09:39:53;7.37;;;1.27;;
10805;SDS011;5455;53.224;6.000;2022-10-16T09:42:22;9.27;;;1.30;;
10805;SDS011;5455;53.224;6.000;2022-10-16T09:44:54;2.83;;;1.10;;
10805;SDS011;5455;53.224;6.000;2022-10-16T09:47:28;5.03;;;1.03;;
10805;SDS011;5455;53.224;6.000;2022-10-16T09:50:00;4.63;;;1.07;;
10805;SDS011;5455;53.224;6.000;2022-10-16T09:52:31;3.73;;;0.93;;
10805;SDS011;5455;53.224;6.000;2022-10-16T09:55:01;4.13;;;1.00;;
10805;SDS011;5455;53.224;6.000;2022-10-16T09:57:52;5.83;;;1.30;;
10805;SDS011;5455;53.224;6.000;2022-10-16T10:00:21;4.03;;;0.90;;
10805;SDS011;5455;53.224;6.000;2022-10-16T10:02:50;3.27;;;0.93;;
10805;SDS011;5455;53.224;6.000;2022-10-16T10:05:26;3.97;;;1.10;;
10805;SDS011;5455;53.224;6.000;2022-10-16T10:07:56;5.57;;;1.20;;
10805;SDS011;5455;53.224;6.000;2022-10-16T10:10:29;5.43;;;1.00;;
10805;SDS011;5455;53.224;6.000;2022-10-16T10:12:59;6.60;;;1.20;;
10805;SDS011;5455;53.224;6.000;2022-10-16T10:15:27;6.50;;;1.10;;
10805;SDS011;5455;53.224;6.000;2022-10-16T10:18:00;7.40;;;1.20;;
10805;SDS011;5455;53.224;6.000;2022-10-16T10:20:33;5.43;;;1.20;;
10805;SDS011;5455;53.224;6.000;2022-10-16T10:23:21;6.23;;;1.07;;
10805;SDS011;5455;53.224;6.000;2022-10-16T10:26:27;6.57;;;1.20;;
10805;SDS011;5455;53.224;6.000;2022-10-16T10:31:54;7.37;;;1.97;;
10805;SDS011;5455;53.224;6.000;2022-10-16T10:37:14;7.87;;;1.20;;
10805;SDS011;5455;53.224;6.000;2022-10-16T10:40:33;7.30;;;1.27;;
10805;SDS011;5455;53.224;6.000;2022-10-16T10:42:48;6.53;;;1.27;;
10805;SDS011;5455;53.224;6.000;2022-10-16T10:45:26;11.47;;;1.70;;
10805;SDS011;5455;53.224;6.000;2022-10-16T10:54:10;8.10;;;1.60;;
10805;SDS011;5455;53.224;6.000;2022-10-16T10:56:56;6.40;;;1.20;;
10805;SDS011;5455;53.224;6.000;2022-10-16T11:02:45;5.80;;;1.37;;
10805;SDS011;5455;53.224;6.000;2022-10-16T11:08:33;9.00;;;1.57;;
10805;SDS011;5455;53.224;6.000;2022-10-16T11:13:31;9.60;;;1.37;;
10805;SDS011;5455;53.224;6.000;2022-10-16T11:16:11;7.63;;;1.40;;
10805;SDS011;5455;53.224;6.000;2022-10-16T11:21:41;15.53;;;2.50;;
10805;SDS011;5455;53.224;6.000;2022-10-16T11:24:21;7.50;;;0.90;;
10805;SDS011;5455;53.224;6.000;2022-10-16T11:26:56;6.30;;;0.97;;
10805;SDS011;5455;53.224;6.000;2022-10-16T11:29:30;4.50;;;0.83;;
10805;SDS011;5455;53.224;6.000;2022-10-16T11:32:06;5.53;;;1.10;;
10805;SDS011;5455;53.224;6.000;2022-10-16T11:34:49;7.57;;;1.43;;
10805;SDS011;5455;53.224;6.000;2022-10-16T11:37:36;5.70;;;0.67;;
10805;SDS011;5455;53.224;6.000;2022-10-16T11:40:16;5.07;;;0.90;;
10805;SDS011;5455;53.224;6.000;2022-10-16T11:42:51;6.47;;;1.20;;
10805;SDS011;5455;53.224;6.000;2022-10-16T11:48:14;10.10;;;1.10;;
10805;SDS011;5455;53.224;6.000;2022-10-16T11:50:53;5.77;;;1.00;;
10805;SDS011;5455;53.224;6.000;2022-10-16T11:53:42;7.07;;;0.90;;
10805;SDS011;5455;53.224;6.000;2022-10-16T11:56:15;8.20;;;0.93;;
10805;SDS011;5455;53.224;6.000;2022-10-16T12:06:43;5.43;;;0.80;;
10805;SDS011;5455;53.224;6.000;2022-10-16T12:09:18;5.03;;;1.10;;
10805;SDS011;5455;53.224;6.000;2022-10-16T12:11:49;6.93;;;0.93;;
10805;SDS011;5455;53.224;6.000;2022-10-16T12:14:18;5.87;;;1.03;;
10805;SDS011;5455;53.224;6.000;2022-10-16T12:16:56;4.50;;;0.70;;
10805;SDS011;5455;53.224;6.000;2022-10-16T12:19:27;5.70;;;1.13;;
10805;SDS011;5455;53.224;6.000;2022-10-16T12:21:58;9.37;;;1.20;;
10805;SDS011;5455;53.224;6.000;2022-10-16T12:24:37;5.60;;;1.27;;
10805;SDS011;5455;53.224;6.000;2022-10-16T12:27:22;7.40;;;0.90;;
10805;SDS011;5455;53.224;6.000;2022-10-16T12:29:58;9.37;;;1.20;;
10805;SDS011;5455;53.224;6.000;2022-10-16T12:32:35;7.53;;;1.23;;
10805;SDS011;5455;53.224;6.000;2022-10-16T12:35:18;4.17;;;0.80;;
10805;SDS011;5455;53.224;6.000;2022-10-16T12:37:48;3.67;;;1.00;;
10805;SDS011;5455;53.224;6.000;2022-10-16T12:40:24;3.10;;;0.60;;
10805;SDS011;5455;53.224;6.000;2022-10-16T12:42:55;3.87;;;0.70;;
10805;SDS011;5455;53.224;6.000;2022-10-16T12:47:52;6.13;;;0.90;;
10805;SDS011;5455;53.224;6.000;2022-10-16T12:52:53;8.70;;;1.00;;
10805;SDS011;5455;53.224;6.000;2022-10-16T12:55:21;6.10;;;1.00;;
10805;SDS011;5455;53.224;6.000;2022-10-16T13:00:57;3.70;;;0.60;;
10805;SDS011;5455;53.224;6.000;2022-10-16T13:03:39;6.23;;;0.87;;
10805;SDS011;5455;53.224;6.000;2022-10-16T13:06:18;3.53;;;0.77;;
10805;SDS011;5455;53.224;6.000;2022-10-16T13:09:01;3.90;;;1.03;;
10805;SDS011;5455;53.224;6.000;2022-10-16T13:11:54;5.77;;;1.10;;
10805;SDS011;5455;53.224;6.000;2022-10-16T13:20:12;7.80;;;1.07;;
10805;SDS011;5455;53.224;6.000;2022-10-16T13:28:07;8.90;;;1.20;;
10805;SDS011;5455;53.224;6.000;2022-10-16T13:30:43;8.50;;;0.93;;
10805;SDS011;5455;53.224;6.000;2022-10-16T13:36:01;6.90;;;1.30;;
10805;SDS011;5455;53.224;6.000;2022-10-16T13:38:30;6.50;;;1.13;;
10805;SDS011;5455;53.224;6.000;2022-10-16T13:41:11;4.87;;;1.10;;
10805;SDS011;5455;53.224;6.000;2022-10-16T13:43:46;3.93;;;0.97;;
10805;SDS011;5455;53.224;6.000;2022-10-16T13:51:55;6.83;;;1.10;;
10805;SDS011;5455;53.224;6.000;2022-10-16T13:54:25;6.27;;;1.23;;
10805;SDS011;5455;53.224;6.000;2022-10-16T13:56:54;6.10;;;1.00;;
10805;SDS011;5455;53.224;6.000;2022-10-16T13:59:33;6.33;;;1.00;;
10805;SDS011;5455;53.224;6.000;2022-10-16T14:02:05;6.23;;;0.90;;
10805;SDS011;5455;53.224;6.000;2022-10-16T14:04:44;4.60;;;1.00;;
10805;SDS011;5455;53.224;6.000;2022-10-16T14:07:17;6.83;;;1.10;;
10805;SDS011;5455;53.224;6.000;2022-10-16T14:09:50;8.00;;;1.13;;
10805;SDS011;5455;53.224;6.000;2022-10-16T14:12:19;12.83;;;1.20;;
10805;SDS011;5455;53.224;6.000;2022-10-16T14:14:54;5.37;;;0.90;;
10805;SDS011;5455;53.224;6.000;2022-10-16T14:17:25;6.53;;;0.93;;
10805;SDS011;5455;53.224;6.000;2022-10-16T14:19:56;6.53;;;0.90;;
10805;SDS011;5455;53.224;6.000;2022-10-16T14:22:40;4.40;;;0.70;;
10805;SDS011;5455;53.224;6.000;2022-10-16T14:28:37;5.57;;;0.83;;
10805;SDS011;5455;53.224;6.000;2022-10-16T14:30:57;4.40;;;0.73;;
10805;SDS011;5455;53.224;6.000;2022-10-16T14:38:31;5.00;;;0.73;;
10805;SDS011;5455;53.224;6.000;2022-10-16T14:41:00;8.33;;;0.73;;
10805;SDS011;5455;53.224;6.000;2022-10-16T14:43:35;4.70;;;0.90;;
10805;SDS011;5455;53.224;6.000;2022-10-16T14:46:06;4.93;;;1.17;;
10805;SDS011;5455;53.224;6.000;2022-10-16T14:48:41;2.47;;;0.80;;
10805;SDS011;5455;53.224;6.000;2022-10-16T14:51:16;8.33;;;1.20;;
10805;SDS011;5455;53.224;6.000;2022-10-16T14:53:46;5.77;;;0.77;;
10805;SDS011;5455;53.224;6.000;2022-10-16T14:56:21;6.73;;;1.40;;
10805;SDS011;5455;53.224;6.000;2022-10-16T14:58:51;5.90;;;1.03;;
10805;SDS011;5455;53.224;6.000;2022-10-16T15:01:19;2.67;;;0.63;;
10805;SDS011;5455;53.224;6.000;2022-10-16T15:03:46;6.97;;;0.90;;
10805;SDS011;5455;53.224;6.000;2022-10-16T15:06:15;4.23;;;1.00;;
10805;SDS011;5455;53.224;6.000;2022-10-16T15:08:43;6.50;;;1.20;;
10805;SDS011;5455;53.224;6.000;2022-10-16T15:11:17;6.00;;;1.10;;
10805;SDS011;5455;53.224;6.000;2022-10-16T15:13:46;5.37;;;0.60;;
10805;SDS011;5455;53.224;6.000;2022-10-16T15:16:15;5.40;;;0.90;;
10805;SDS011;5455;53.224;6.000;2022-10-16T15:18:43;7.17;;;1.27;;
10805;SDS011;5455;53.224;6.000;2022-10-16T15:21:30;3.83;;;0.97;;
10805;SDS011;5455;53.224;6.000;2022-10-16T15:23:59;7.90;;;1.10;;
10805;SDS011;5455;53.224;6.000;2022-10-16T15:26:27;9.93;;;1.53;;
10805;SDS011;5455;53.224;6.000;2022-10-16T15:28:57;4.07;;;0.90;;
10805;SDS011;5455;53.224;6.000;2022-10-16T15:31:25;7.60;;;0.87;;
10805;SDS011;5455;53.224;6.000;2022-10-16T15:33:52;6.27;;;1.00;;
10805;SDS011;5455;53.224;6.000;2022-10-16T15:36:28;3.67;;;1.23;;
10805;SDS011;5455;53.224;6.000;2022-10-16T15:38:56;7.33;;;1.73;;
10805;SDS011;5455;53.224;6.000;2022-10-16T15:41:24;8.70;;;2.17;;
10805;SDS011;5455;53.224;6.000;2022-10-16T15:43:51;9.10;;;3.23;;
10805;SDS011;5455;53.224;6.000;2022-10-16T15:46:20;14.57;;;3.77;;
10805;SDS011;5455;53.224;6.000;2022-10-16T15:48:49;8.90;;;3.43;;
10805;SDS011;5455;53.224;6.000;2022-10-16T15:51:18;6.87;;;2.63;;
10805;SDS011;5455;53.224;6.000;2022-10-16T15:53:45;12.33;;;2.60;;
10805;SDS011;5455;53.224;6.000;2022-10-16T15:56:13;8.20;;;2.50;;
10805;SDS011;5455;53.224;6.000;2022-10-16T15:58:42;10.67;;;2.40;;
10805;SDS011;5455;53.224;6.000;2022-10-16T16:01:10;8.73;;;2.10;;
10805;SDS011;5455;53.224;6.000;2022-10-16T16:03:38;7.77;;;2.63;;
10805;SDS011;5455;53.224;6.000;2022-10-16T16:06:10;6.73;;;2.27;;
10805;SDS011;5455;53.224;6.000;2022-10-16T16:08:39;8.57;;;2.37;;
10805;SDS011;5455;53.224;6.000;2022-10-16T16:11:08;6.50;;;2.10;;
10805;SDS011;5455;53.224;6.000;2022-10-16T16:13:38;5.03;;;1.30;;
10805;SDS011;5455;53.224;6.000;2022-10-16T16:16:06;6.30;;;2.00;;
10805;SDS011;5455;53.224;6.000;2022-10-16T16:18:38;6.17;;;1.50;;
10805;SDS011;5455;53.224;6.000;2022-10-16T16:21:07;5.93;;;1.77;;
10805;SDS011;5455;53.224;6.000;2022-10-16T16:23:36;9.27;;;1.83;;
10805;SDS011;5455;53.224;6.000;2022-10-16T16:26:05;6.97;;;1.47;;
10805;SDS011;5455;53.224;6.000;2022-10-16T16:28:51;5.97;;;1.90;;
10805;SDS011;5455;53.224;6.000;2022-10-16T16:31:20;6.50;;;2.27;;
10805;SDS011;5455;53.224;6.000;2022-10-16T16:33:51;4.57;;;1.87;;
10805;SDS011;5455;53.224;6.000;2022-10-16T16:36:19;6.50;;;3.00;;
10805;SDS011;5455;53.224;6.000;2022-10-16T16:38:47;8.67;;;3.90;;
10805;SDS011;5455;53.224;6.000;2022-10-16T16:41:18;6.77;;;4.10;;
10805;SDS011;5455;53.224;6.000;2022-10-16T16:43:47;13.97;;;5.30;;
10805;SDS011;5455;53.224;6.000;2022-10-16T16:46:15;11.97;;;5.63;;
10805;SDS011;5455;53.224;6.000;2022-10-16T16:48:44;11.03;;;6.00;;
10805;SDS011;5455;53.224;6.000;2022-10-16T16:51:14;14.60;;;6.40;;
10805;SDS011;5455;53.224;6.000;2022-10-16T16:53:44;15.50;;;6.43;;
10805;SDS011;5455;53.224;6.000;2022-10-16T16:56:16;17.63;;;7.23;;
10805;SDS011;5455;53.224;6.000;2022-10-16T16:58:45;17.87;;;8.20;;
10805;SDS011;5455;53.224;6.000;2022-10-16T17:01:14;13.70;;;7.40;;